Time;durP1;ratioP1;P1;durP2;ratioP2;P2;SDS_P1;SDS_P2;PMS_P1;PMS_P2;Temp;Humidity;BMP_temperature;BMP_pressure;BME280_temperature;BME280_humidity;BME280_pressure;Samples;Min_cycle;Max_cycle;Signal;HPM_P1;HPM_P2
2023/08/23 00:01:55;;;;;;;5.35;4.85;;;22.80;99.90;;;;;;5034927;28;20033;-74
2023/08/23 00:04:20;;;;;;;6.07;5.47;;;22.70;99.90;;;;;;5030690;28;20034;-74
2023/08/23 00:06:46;;;;;;;5.50;5.00;;;22.70;99.90;;;;;;5024213;28;20041;-75
2023/08/23 00:09:12;;;;;;;5.38;4.88;;;22.60;99.90;;;;;;5020971;28;20744;-74
2023/08/23 00:11:38;;;;;;;5.15;4.75;;;22.60;99.90;;;;;;5016099;28;20769;-74
2023/08/23 00:14:03;;;;;;;5.60;5.10;;;22.50;99.90;;;;;;5033482;28;20071;-74
2023/08/23 00:16:29;;;;;;;5.57;5.00;;;22.40;99.90;;;;;;5025652;28;20037;-74
2023/08/23 00:18:55;;;;;;;5.88;5.40;;;22.40;99.90;;;;;;5011076;28;20159;-74
2023/08/23 00:21:21;;;;;;;5.40;5.00;;;22.40;99.90;;;;;;5029020;28;20490;-74
2023/08/23 00:23:47;;;;;;;6.43;5.28;;;22.40;99.90;;;;;;5020500;28;20025;-75
2023/08/23 00:26:13;;;;;;;5.97;5.47;;;22.40;99.90;;;;;;5020124;28;20152;-73
2023/08/23 00:28:39;;;;;;;6.25;5.75;;;22.40;99.90;;;;;;5012874;28;20628;-73
2023/08/23 00:31:05;;;;;;;5.78;5.28;;;22.30;99.90;;;;;;5023699;28;20046;-73
2023/08/23 00:33:31;;;;;;;5.47;4.97;;;22.30;99.90;;;;;;5025760;28;20037;-73
2023/08/23 00:35:57;;;;;;;6.20;5.60;;;22.30;99.90;;;;;;5024069;28;20417;-73
2023/08/23 00:38:22;;;;;;;5.88;5.28;;;22.30;99.90;;;;;;5026581;28;20121;-73
2023/08/23 00:40:48;;;;;;;5.60;5.10;;;22.30;99.90;;;;;;5026838;28;20136;-72
2023/08/23 00:43:14;;;;;;;5.78;5.18;;;22.30;99.90;;;;;;5024735;28;20041;-73
2023/08/23 00:45:42;;;;;;;5.72;5.18;;;22.30;99.90;;;;;;5005262;28;20032;-73
2023/08/23 00:48:09;;;;;;;6.10;5.53;;;22.30;99.90;;;;;;5022759;28;20428;-73
2023/08/23 00:50:36;;;;;;;5.60;5.07;;;22.30;99.90;;;;;;5027306;28;20971;-73
2023/08/23 00:53:02;;;;;;;6.03;5.57;;;22.30;99.90;;;;;;5029215;28;20108;-73
2023/08/23 00:55:29;;;;;;;6.57;5.97;;;22.30;99.90;;;;;;5019061;28;20049;-72
2023/08/23 00:57:56;;;;;;;6.53;5.95;;;22.20;99.90;;;;;;5031374;28;20033;-72
2023/08/23 01:00:22;;;;;;;7.70;6.20;;;22.20;99.90;;;;;;5018674;28;20665;-72
2023/08/23 01:02:48;;;;;;;6.82;6.20;;;22.20;99.90;;;;;;5013588;28;21276;-72
2023/08/23 01:05:15;;;;;;;8.65;6.45;;;22.20;99.90;;;;;;5030379;28;20603;-72
2023/08/23 01:07:53;;;;;;;8.38;5.50;;;22.20;99.90;;;;;;5025669;28;20029;-72
2023/08/23 01:10:34;;;;;;;5.90;5.45;;;22.20;99.90;;;;;;5031288;28;20660;-72
2023/08/23 01:13:13;;;;;;;5.97;5.37;;;22.20;99.90;;;;;;5032008;28;20101;-72
2023/08/23 01:15:39;;;;;;;5.95;5.30;;;22.10;99.90;;;;;;5030199;28;23739;-71
2023/08/23 01:18:05;;;;;;;5.72;5.22;;;22.00;99.90;;;;;;5025899;28;20554;-72
2023/08/23 01:20:33;;;;;;;5.75;5.28;;;21.90;99.90;;;;;;5015224;28;20083;-72
2023/08/23 01:23:12;;;;;;;5.63;5.13;;;21.90;99.90;;;;;;5023042;28;20083;-72
2023/08/23 01:25:52;;;;;;;5.93;4.93;;;21.90;99.90;;;;;;5023029;28;20543;-72
2023/08/23 01:28:19;;;;;;;5.65;5.15;;;21.90;99.90;;;;;;5021166;28;20679;-72
2023/08/23 01:30:45;;;;;;;6.07;5.57;;;21.80;99.90;;;;;;5003900;28;20167;-71
2023/08/23 01:33:46;;;;;;;6.40;5.90;;;21.80;99.90;;;;;;5015986;28;20128;-72
2023/08/23 01:36:23;;;;;;;6.80;5.63;;;21.70;99.90;;;;;;5024689;28;20040;-72
2023/08/23 01:38:50;;;;;;;5.45;4.97;;;21.70;99.90;;;;;;5015052;28;20140;-73
2023/08/23 01:41:17;;;;;;;5.57;5.07;;;21.60;99.90;;;;;;5003106;28;20076;-73
2023/08/23 01:43:46;;;;;;;6.13;5.53;;;21.60;99.90;;;;;;5019518;28;20040;-72
2023/08/23 01:46:11;;;;;;;5.60;5.10;;;21.60;99.90;;;;;;5006956;28;20122;-73
2023/08/23 01:48:37;;;;;;;6.30;5.30;;;21.60;99.90;;;;;;5030704;28;20035;-73
2023/08/23 01:51:03;;;;;;;5.85;5.22;;;21.60;99.90;;;;;;5014793;28;20080;-73
2023/08/23 01:53:28;;;;;;;5.90;5.40;;;21.60;99.90;;;;;;5031708;28;20108;-73
2023/08/23 01:55:54;;;;;;;6.63;6.03;;;21.50;99.90;;;;;;5022525;28;20045;-74
2023/08/23 01:58:20;;;;;;;5.82;5.35;;;21.50;99.90;;;;;;5024468;28;20045;-74
2023/08/23 02:00:47;;;;;;;6.13;5.43;;;21.50;99.90;;;;;;5022936;28;20029;-73
2023/08/23 02:03:13;;;;;;;6.05;5.40;;;21.50;99.90;;;;;;5014062;28;20128;-73
2023/08/23 02:05:38;;;;;;;6.72;5.70;;;21.50;99.90;;;;;;5033613;28;20036;-73
2023/08/23 02:08:04;;;;;;;5.38;4.88;;;21.60;99.90;;;;;;5027612;28;20057;-74
2023/08/23 02:10:29;;;;;;;7.55;5.28;;;21.60;99.90;;;;;;5033976;28;20461;-74
2023/08/23 02:12:55;;;;;;;6.15;5.18;;;21.60;99.90;;;;;;5028371;28;20033;-73
2023/08/23 02:15:21;;;;;;;6.88;5.25;;;21.60;99.90;;;;;;5013521;28;21076;-73
2023/08/23 02:17:46;;;;;;;5.97;5.47;;;21.60;99.90;;;;;;5026032;28;20056;-72
2023/08/23 02:20:12;;;;;;;6.30;5.07;;;21.60;99.90;;;;;;5020908;28;20120;-72
2023/08/23 02:22:37;;;;;;;6.55;4.97;;;21.50;99.90;;;;;;5026394;28;20028;-72
2023/08/23 02:25:03;;;;;;;5.30;4.75;;;21.40;99.90;;;;;;5025258;28;20064;-71
2023/08/23 02:27:29;;;;;;;5.70;5.00;;;21.40;99.90;;;;;;5024603;28;20028;-71
2023/08/23 02:29:54;;;;;;;5.88;5.28;;;21.30;99.90;;;;;;5023546;28;20060;-71
2023/08/23 02:32:20;;;;;;;7.35;5.60;;;21.30;99.90;;;;;;5024703;28;20033;-71
2023/08/23 02:34:46;;;;;;;7.32;5.70;;;21.30;99.90;;;;;;5023887;28;20769;-71
2023/08/23 02:37:12;;;;;;;6.63;5.07;;;21.30;99.90;;;;;;5016482;28;20037;-71
2023/08/23 02:39:37;;;;;;;6.03;4.97;;;21.30;99.90;;;;;;5023784;28;20124;-71
2023/08/23 02:42:03;;;;;;;5.55;5.03;;;21.30;99.90;;;;;;5016582;28;20044;-73
2023/08/23 02:44:29;;;;;;;5.45;5.05;;;21.30;99.90;;;;;;5021553;28;20736;-73
2023/08/23 02:46:54;;;;;;;7.95;5.40;;;21.30;99.90;;;;;;5028729;28;20584;-72
2023/08/23 02:49:20;;;;;;;8.82;5.78;;;21.30;99.90;;;;;;5025859;28;21551;-72
2023/08/23 02:51:45;;;;;;;5.88;5.38;;;21.30;99.90;;;;;;5025550;28;20029;-72
2023/08/23 02:54:11;;;;;;;6.18;5.63;;;21.30;99.90;;;;;;5031654;28;20037;-73
2023/08/23 02:56:37;;;;;;;6.10;5.38;;;21.20;99.90;;;;;;5005565;28;20052;-73
2023/08/23 02:59:02;;;;;;;5.95;5.45;;;21.20;99.90;;;;;;5023334;28;20052;-74
2023/08/23 03:01:28;;;;;;;5.93;5.32;;;21.20;99.90;;;;;;5033022;28;20028;-73
2023/08/23 03:03:54;;;;;;;6.75;5.35;;;21.20;99.90;;;;;;5029306;28;20040;-73
2023/08/23 03:06:19;;;;;;;6.15;5.47;;;21.20;99.90;;;;;;5021455;28;20437;-73
2023/08/23 03:08:45;;;;;;;6.15;5.65;;;21.20;99.90;;;;;;5015016;28;20672;-73
2023/08/23 03:11:10;;;;;;;8.63;5.68;;;21.20;99.90;;;;;;5021780;28;20039;-73
2023/08/23 03:13:36;;;;;;;7.22;5.35;;;21.20;99.90;;;;;;5018113;28;21007;-73
2023/08/23 03:16:02;;;;;;;6.10;5.60;;;21.20;99.90;;;;;;5030151;28;20040;-72
2023/08/23 03:18:28;;;;;;;6.78;6.10;;;21.30;99.90;;;;;;5030970;28;20029;-73
2023/08/23 03:20:53;;;;;;;5.63;5.13;;;21.30;99.90;;;;;;5033153;28;20183;-73
2023/08/23 03:23:20;;;;;;;5.40;5.00;;;21.30;99.90;;;;;;5010918;28;20032;-73
2023/08/23 03:25:46;;;;;;;7.15;5.93;;;21.40;99.90;;;;;;5021798;28;20605;-72
2023/08/23 03:28:13;;;;;;;6.53;5.82;;;21.40;99.90;;;;;;5026137;28;20112;-73
2023/08/23 03:30:39;;;;;;;6.40;5.80;;;21.50;99.90;;;;;;5017471;28;20037;-73
2023/08/23 03:33:05;;;;;;;6.88;6.20;;;21.60;99.90;;;;;;5025833;28;20044;-73
2023/08/23 03:35:31;;;;;;;6.47;5.85;;;21.70;99.90;;;;;;5008839;28;20394;-73
2023/08/23 03:37:56;;;;;;;6.78;6.25;;;21.80;99.90;;;;;;5026954;28;20045;-74
2023/08/23 03:40:22;;;;;;;6.50;6.00;;;22.00;99.90;;;;;;5018113;28;20036;-73
2023/08/23 03:42:48;;;;;;;7.30;6.70;;;22.10;99.90;;;;;;5022566;28;20052;-73
2023/08/23 03:45:14;;;;;;;6.88;6.28;;;22.20;99.90;;;;;;5024404;28;20033;-73
2023/08/23 03:47:39;;;;;;;7.10;6.50;;;22.30;99.90;;;;;;5023986;28;20457;-73
2023/08/23 03:50:05;;;;;;;6.47;5.88;;;22.40;99.90;;;;;;5024807;28;20120;-73
2023/08/23 03:52:31;;;;;;;7.07;6.43;;;22.40;99.90;;;;;;5027107;28;20029;-73
2023/08/23 03:54:57;;;;;;;7.93;6.68;;;22.40;99.90;;;;;;5023563;28;20029;-73
2023/08/23 03:57:22;;;;;;;6.78;6.10;;;22.50;99.90;;;;;;5017746;28;20033;-73
2023/08/23 03:59:48;;;;;;;9.48;6.40;;;22.60;99.90;;;;;;5019568;28;20513;-73
2023/08/23 04:02:13;;;;;;;7.38;6.55;;;22.70;99.90;;;;;;5005955;28;20028;-73
2023/08/23 04:04:39;;;;;;;6.80;6.10;;;22.80;99.90;;;;;;5040117;28;20029;-74
2023/08/23 04:07:07;;;;;;;6.82;5.63;;;22.80;99.90;;;;;;5030661;28;20032;-73
2023/08/23 04:09:33;;;;;;;5.80;5.15;;;22.70;99.90;;;;;;5034693;28;20147;-73
2023/08/23 04:11:59;;;;;;;6.20;5.60;;;22.60;99.90;;;;;;5021755;28;20037;-73
2023/08/23 04:14:24;;;;;;;5.43;4.93;;;22.40;99.90;;;;;;5036003;28;20082;-73
2023/08/23 04:16:50;;;;;;;6.13;5.53;;;22.30;99.90;;;;;;5029158;28;20080;-73
2023/08/23 04:19:15;;;;;;;5.65;5.25;;;22.20;99.90;;;;;;5034532;28;20036;-73
2023/08/23 04:21:41;;;;;;;6.20;5.60;;;22.10;99.90;;;;;;5031432;28;20036;-73
2023/08/23 04:24:07;;;;;;;6.80;5.40;;;22.10;99.90;;;;;;5030713;28;20066;-73
2023/08/23 04:26:32;;;;;;;5.75;5.15;;;22.00;99.90;;;;;;5034240;28;20041;-73
2023/08/23 04:28:58;;;;;;;5.80;5.38;;;22.00;99.90;;;;;;5030875;28;20127;-73
2023/08/23 04:31:24;;;;;;;7.90;5.78;;;21.90;99.90;;;;;;5030682;28;20033;-73
2023/08/23 04:33:49;;;;;;;6.82;6.10;;;21.90;99.90;;;;;;5028385;28;20025;-74
2023/08/23 04:36:15;;;;;;;7.43;5.70;;;22.00;99.90;;;;;;5030282;28;20599;-73
2023/08/23 04:38:40;;;;;;;6.63;5.78;;;22.00;99.90;;;;;;5021465;28;20026;-73
2023/08/23 04:41:06;;;;;;;9.70;6.10;;;22.10;99.90;;;;;;5036855;28;20047;-73
2023/08/23 04:43:32;;;;;;;7.22;6.03;;;22.10;99.90;;;;;;5038405;28;20051;-73
2023/08/23 04:45:58;;;;;;;6.80;6.10;;;22.10;99.90;;;;;;5031003;28;20037;-73
2023/08/23 04:48:26;;;;;;;6.57;6.07;;;22.10;99.90;;;;;;5031912;28;20166;-74
2023/08/23 04:50:53;;;;;;;7.57;6.53;;;22.10;99.90;;;;;;5027945;28;20048;-72
2023/08/23 04:53:19;;;;;;;12.80;6.03;;;22.20;99.90;;;;;;5024139;28;20060;-73
2023/08/23 04:55:45;;;;;;;9.90;6.90;;;22.20;99.90;;;;;;5034012;28;20055;-73
2023/08/23 04:58:11;;;;;;;7.70;7.00;;;22.30;99.90;;;;;;5032011;28;20060;-73
2023/08/23 05:00:36;;;;;;;8.05;7.30;;;22.30;99.90;;;;;;5027823;28;20106;-73
2023/08/23 05:03:03;;;;;;;7.57;6.55;;;22.40;99.90;;;;;;5035525;28;20028;-73
2023/08/23 05:05:28;;;;;;;7.00;6.40;;;22.50;99.90;;;;;;5004899;28;20053;-74
2023/08/23 05:07:54;;;;;;;10.73;6.60;;;22.60;99.90;;;;;;5007563;28;20033;-74
2023/08/23 05:10:19;;;;;;;6.95;6.28;;;22.60;99.90;;;;;;5030612;28;20024;-73
2023/08/23 05:12:46;;;;;;;9.88;6.93;;;22.70;99.90;;;;;;5031772;28;20037;-73
2023/08/23 05:15:12;;;;;;;10.50;6.97;;;22.80;99.90;;;;;;5023674;28;20561;-72
2023/08/23 05:17:37;;;;;;;7.38;6.47;;;22.90;99.90;;;;;;5030645;28;20031;-72
2023/08/23 05:20:04;;;;;;;7.03;6.22;;;23.00;99.90;;;;;;5034215;28;20108;-72
2023/08/23 05:22:29;;;;;;;8.90;6.63;;;23.10;99.90;;;;;;5029794;28;20037;-73
2023/08/23 05:24:55;;;;;;;7.57;6.13;;;23.20;99.90;;;;;;5023061;28;20087;-72
2023/08/23 05:27:21;;;;;;;6.13;5.60;;;23.30;99.90;;;;;;5020605;28;20100;-72
2023/08/23 05:29:47;;;;;;;6.60;5.90;;;23.50;99.90;;;;;;5018676;28;20036;-73
2023/08/23 05:32:12;;;;;;;12.23;7.00;;;23.60;99.90;;;;;;5024594;28;20033;-73
2023/08/23 05:34:40;;;;;;;8.20;6.18;;;23.70;99.90;;;;;;5033336;28;20059;-73
2023/08/23 05:37:06;;;;;;;8.25;6.30;;;23.80;99.90;;;;;;5013580;28;20033;-73
2023/08/23 05:39:32;;;;;;;6.82;6.10;;;23.90;99.90;;;;;;5028733;28;20036;-73
2023/08/23 05:41:57;;;;;;;6.50;5.85;;;24.00;99.90;;;;;;5026150;28;20045;-73
2023/08/23 05:44:23;;;;;;;6.15;5.55;;;24.10;99.90;;;;;;5030029;28;20029;-73
2023/08/23 05:46:48;;;;;;;7.15;5.88;;;24.20;99.90;;;;;;5025990;28;20037;-73
2023/08/23 05:49:14;;;;;;;10.23;6.57;;;24.40;99.90;;;;;;5025331;28;20068;-75
2023/08/23 05:51:39;;;;;;;6.55;6.00;;;24.50;99.90;;;;;;5030761;28;20078;-73
2023/08/23 05:54:06;;;;;;;7.35;5.72;;;24.60;99.90;;;;;;5031749;28;20038;-73
2023/08/23 05:56:31;;;;;;;6.97;6.28;;;24.60;99.90;;;;;;5028473;28;20069;-73
2023/08/23 05:58:57;;;;;;;7.80;6.57;;;24.70;99.90;;;;;;5023484;28;20152;-72
2023/08/23 06:01:23;;;;;;;7.90;6.47;;;24.80;99.90;;;;;;5032081;28;20034;-72
2023/08/23 06:03:49;;;;;;;7.60;6.85;;;24.90;99.90;;;;;;5040315;28;20021;-72
2023/08/23 06:06:15;;;;;;;7.95;6.25;;;25.00;99.90;;;;;;5031946;28;20029;-73
2023/08/23 06:08:40;;;;;;;6.75;5.68;;;25.20;99.90;;;;;;5033942;28;20037;-73
2023/08/23 06:11:06;;;;;;;12.50;6.60;;;25.30;99.90;;;;;;5029460;28;20068;-73
2023/08/23 06:13:32;;;;;;;8.45;7.05;;;25.40;99.90;;;;;;5033041;28;20375;-73
2023/08/23 06:15:57;;;;;;;9.63;6.55;;;25.50;99.90;;;;;;5034686;28;20037;-73
2023/08/23 06:18:23;;;;;;;7.75;7.00;;;25.50;99.90;;;;;;5021203;28;20122;-73
2023/08/23 06:20:49;;;;;;;7.90;7.20;;;25.60;99.90;;;;;;5036782;28;20387;-72
2023/08/23 06:23:15;;;;;;;7.18;6.50;;;25.70;99.90;;;;;;5036682;28;20016;-73
2023/08/23 06:25:41;;;;;;;9.60;7.50;;;25.80;99.90;;;;;;5037321;28;20033;-72
2023/08/23 06:28:08;;;;;;;20.33;8.75;;;25.80;99.90;;;;;;5029455;28;20037;-72
2023/08/23 06:30:36;;;;;;;8.57;7.55;;;25.90;99.90;;;;;;5031549;28;20040;-72
2023/08/23 06:33:04;;;;;;;10.93;7.68;;;26.00;99.90;;;;;;5028418;28;20029;-72
2023/08/23 06:35:30;;;;;;;9.93;7.90;;;26.00;99.90;;;;;;5017807;28;20104;-73
2023/08/23 06:37:55;;;;;;;8.05;7.13;;;26.10;99.90;;;;;;5032264;28;20034;-73
2023/08/23 06:40:21;;;;;;;9.25;7.18;;;26.20;99.90;;;;;;5033402;28;20218;-73
2023/08/23 06:42:46;;;;;;;8.48;7.68;;;26.30;99.90;;;;;;5028375;28;20515;-73
2023/08/23 06:45:12;;;;;;;8.32;7.45;;;26.40;99.90;;;;;;5033113;28;20032;-73
2023/08/23 06:47:38;;;;;;;8.73;7.05;;;26.40;99.90;;;;;;5031554;28;20114;-73
2023/08/23 06:50:04;;;;;;;7.85;7.15;;;26.50;99.90;;;;;;5037349;28;20025;-73
2023/08/23 06:52:30;;;;;;;7.82;7.13;;;26.60;99.90;;;;;;5034105;28;20029;-72
2023/08/23 06:54:55;;;;;;;11.30;7.22;;;26.70;99.90;;;;;;5038766;28;20017;-73
2023/08/23 06:57:29;;;;;;;10.27;7.07;;;26.80;99.90;;;;;;5035061;28;20453;-73
2023/08/23 06:59:56;;;;;;;7.75;7.00;;;26.90;99.90;;;;;;5027130;28;20103;-73
2023/08/23 07:02:22;;;;;;;8.93;7.68;;;26.90;99.90;;;;;;5031712;28;20036;-73
2023/08/23 07:04:49;;;;;;;8.15;6.63;;;26.90;99.90;;;;;;5013827;28;20087;-74
2023/08/23 07:07:15;;;;;;;8.27;7.55;;;26.90;99.90;;;;;;5034321;28;20024;-73
2023/08/23 07:09:41;;;;;;;8.32;7.53;;;27.00;99.90;;;;;;5035731;28;20639;-71
2023/08/23 07:12:06;;;;;;;7.85;6.80;;;27.10;99.90;;;;;;5035084;28;20057;-81
2023/08/23 07:14:32;;;;;;;8.73;7.85;;;27.20;99.90;;;;;;5037292;28;20048;-81
2023/08/23 07:16:57;;;;;;;7.93;6.63;;;27.30;99.90;;;;;;5029701;28;20341;-81
2023/08/23 07:19:23;;;;;;;13.43;7.45;;;27.50;99.90;;;;;;5035017;28;20033;-77
2023/08/23 07:21:49;;;;;;;7.55;6.90;;;27.60;99.90;;;;;;5040016;28;20057;-81
2023/08/23 07:24:14;;;;;;;8.52;6.72;;;27.60;99.90;;;;;;5032582;28;20022;-80
2023/08/23 07:26:40;;;;;;;11.27;7.40;;;27.60;99.90;;;;;;5015053;28;20116;-80
2023/08/23 07:29:05;;;;;;;7.68;7.00;;;27.70;99.90;;;;;;5033384;28;20091;-80
2023/08/23 07:31:31;;;;;;;8.48;7.15;;;27.90;99.90;;;;;;5033937;28;20112;-80
2023/08/23 07:33:56;;;;;;;7.63;6.93;;;27.90;99.90;;;;;;5035573;28;20017;-81
2023/08/23 07:36:22;;;;;;;8.25;7.50;;;27.90;99.90;;;;;;5017206;28;20809;-82
2023/08/23 07:38:48;;;;;;;7.65;6.95;;;27.90;99.90;;;;;;5023327;28;20103;-78
2023/08/23 07:41:13;;;;;;;8.73;6.55;;;28.10;99.90;;;;;;5037962;28;20470;-80
2023/08/23 07:43:39;;;;;;;8.93;7.18;;;28.20;99.90;;;;;;5032476;28;20048;-81
2023/08/23 07:46:07;;;;;;;9.93;6.82;;;28.30;99.90;;;;;;5037466;28;20021;-81
2023/08/23 07:48:32;;;;;;;7.55;6.85;;;28.30;99.90;;;;;;5038393;28;20104;-80
2023/08/23 07:51:01;;;;;;;9.77;7.13;;;28.20;99.90;;;;;;5016521;28;20095;-80
2023/08/23 07:53:28;;;;;;;10.43;7.05;;;28.20;99.90;;;;;;5019980;28;20091;-80
2023/08/23 07:55:54;;;;;;;8.68;7.03;;;28.30;99.90;;;;;;5020084;28;20025;-80
2023/08/23 07:58:19;;;;;;;10.07;7.15;;;28.40;99.90;;;;;;5041337;28;20049;-79
2023/08/23 08:00:45;;;;;;;8.48;6.93;;;28.50;99.90;;;;;;5039076;28;20051;-78
2023/08/23 08:03:11;;;;;;;7.07;6.43;;;28.60;99.90;;;;;;5040508;28;20029;-80
2023/08/23 08:05:37;;;;;;;7.60;6.75;;;28.60;99.90;;;;;;5038500;28;20398;-79
2023/08/23 08:08:04;;;;;;;14.68;6.95;;;28.60;99.90;;;;;;5038131;28;20029;-79
2023/08/23 08:10:30;;;;;;;6.72;6.20;;;28.60;99.90;;;;;;5037179;28;20535;-78
2023/08/23 08:12:56;;;;;;;7.13;6.53;;;28.80;99.90;;;;;;5040709;28;20108;-78
2023/08/23 08:15:21;;;;;;;7.43;6.72;;;28.90;99.90;;;;;;5037322;28;20029;-79
2023/08/23 08:17:51;;;;;;;6.85;6.28;;;29.00;99.90;;;;;;5034048;28;20434;-78
2023/08/23 08:20:18;;;;;;;8.52;6.43;;;29.10;99.90;;;;;;5036398;28;20021;-81
2023/08/23 08:22:44;;;;;;;7.60;6.60;;;29.10;99.90;;;;;;5029812;28;21055;-80
2023/08/23 08:25:10;;;;;;;8.07;6.57;;;29.10;99.90;;;;;;5037610;28;20449;-81
2023/08/23 08:27:35;;;;;;;7.30;6.57;;;29.10;99.90;;;;;;5015283;28;20488;-81
2023/08/23 08:30:02;;;;;;;14.38;6.15;;;29.20;99.90;;;;;;5037527;28;20032;-81
2023/08/23 08:32:28;;;;;;;6.97;6.35;;;29.30;99.90;;;;;;5036323;28;20032;-79
2023/08/23 08:34:55;;;;;;;7.15;6.45;;;29.40;99.90;;;;;;5031926;28;20573;-79
2023/08/23 08:37:23;;;;;;;6.55;5.65;;;29.50;99.90;;;;;;5040345;28;20037;-80
2023/08/23 08:39:49;;;;;;;6.45;5.88;;;29.70;99.90;;;;;;5030668;28;20025;-81
2023/08/23 08:42:33;;;;;;;8.02;6.50;;;29.80;99.90;;;;;;5033998;28;20079;-81
2023/08/23 08:44:59;;;;;;;8.00;6.20;;;30.00;99.90;;;;;;5036891;28;20121;-82
2023/08/23 08:47:25;;;;;;;7.80;6.43;;;30.10;99.90;;;;;;5035408;28;20033;-81
2023/08/23 08:49:51;;;;;;;8.30;6.35;;;30.20;99.90;;;;;;5038183;28;20020;-83
2023/08/23 08:52:19;;;;;;;7.07;6.53;;;30.20;99.90;;;;;;5036064;28;20120;-81
2023/08/23 08:54:47;;;;;;;8.45;6.20;;;30.40;99.90;;;;;;5032140;28;20095;-81
2023/08/23 08:57:14;;;;;;;8.77;6.00;;;30.40;99.90;;;;;;5032207;28;20049;-81
2023/08/23 08:59:40;;;;;;;;;;;30.30;99.90;;;;;;5040196;28;20044;-80
2023/08/23 09:02:07;;;;;;;;;;;30.20;99.90;;;;;;5038090;28;20588;-80
2023/08/23 09:04:33;;;;;;;;;;;30.30;99.90;;;;;;5038561;28;19917;-80
2023/08/23 09:06:58;;;;;;;;;;;30.30;99.90;;;;;;5034354;28;19942;-81
2023/08/23 09:09:24;;;;;;;;;;;30.40;99.90;;;;;;5034191;28;19954;-82
2023/08/23 09:11:49;;;;;;;;;;;30.40;99.90;;;;;;5020740;28;19908;-80
2023/08/23 09:14:16;;;;;;;;;;;30.50;99.90;;;;;;5038922;28;19999;-83
2023/08/23 09:16:41;;;;;;;;;;;30.70;99.90;;;;;;5018439;28;19951;-81
2023/08/23 09:19:13;;;;;;;;;;;30.70;99.90;;;;;;5036977;28;20015;-82
2023/08/23 09:21:42;;;;;;;;;;;30.80;99.90;;;;;;5021145;28;20275;-82
2023/08/23 09:24:07;;;;;;;;;;;30.90;99.90;;;;;;5034979;28;19912;-80
2023/08/23 09:26:33;;;;;;;;;;;31.00;99.90;;;;;;5036790;28;19911;-80
2023/08/23 09:29:00;;;;;;;;;;;31.00;99.90;;;;;;5033441;28;19939;-82
2023/08/23 09:31:26;;;;;;;;;;;31.10;99.90;;;;;;5039042;28;20284;-82
2023/08/23 09:33:52;;;;;;;;;;;31.00;99.90;;;;;;5037821;28;19912;-82
2023/08/23 09:36:25;;;;;;;;;;;31.10;99.90;;;;;;5039299;28;20374;-82
2023/08/23 09:38:51;;;;;;;;;;;31.10;99.90;;;;;;5042233;28;19919;-83
2023/08/23 09:41:16;;;;;;;;;;;31.10;99.90;;;;;;5036590;28;20321;-82
2023/08/23 09:43:42;;;;;;;;;;;31.20;99.90;;;;;;5036579;28;20023;-81
2023/08/23 09:46:09;;;;;;;;;;;31.20;99.90;;;;;;5035898;28;19916;-81
2023/08/23 09:48:35;;;;;;;;;;;31.20;99.90;;;;;;5037129;28;19915;-80
2023/08/23 09:51:02;;;;;;;;;;;31.20;99.90;;;;;;5035737;28;19909;-79
2023/08/23 09:53:32;;;;;;;;;;;31.20;99.90;;;;;;5038370;28;19959;-80
2023/08/23 09:56:00;;;;;;;;;;;31.20;99.90;;;;;;5036341;28;19917;-82
2023/08/23 09:58:26;;;;;;;;;;;31.20;99.90;;;;;;5041078;28;20011;-79
2023/08/23 10:00:51;;;;;;;;;;;31.30;99.90;;;;;;5031902;28;19913;-81
2023/08/23 10:03:19;;;;;;;;;;;31.50;99.90;;;;;;5029901;28;19913;-77
2023/08/23 10:05:45;;;;;;;;;;;31.60;99.90;;;;;;5030984;28;19968;-77
2023/08/23 10:08:11;;;;;;;;;;;31.60;99.90;;;;;;5033125;28;19955;-78
2023/08/23 10:10:40;;;;;;;;;;;31.60;99.90;;;;;;5030608;28;19967;-76
2023/08/23 10:13:06;;;;;;;;;;;31.50;99.90;;;;;;5031211;28;19920;-79
2023/08/23 10:15:32;;;;;;;;;;;31.30;99.90;;;;;;5032074;28;19913;-80
2023/08/23 10:17:59;;;;;;;;;;;31.50;99.90;;;;;;5032377;28;19912;-80
2023/08/23 10:20:25;;;;;;;;;;;31.60;99.90;;;;;;5030240;28;19967;-80
2023/08/23 10:22:55;;;;;;;;;;;31.70;99.90;;;;;;5036305;28;19951;-81
2023/08/23 10:25:21;;;;;;;;;;;31.80;99.90;;;;;;5040765;28;20361;-80
2023/08/23 10:27:48;;;;;;;;;;;31.80;99.90;;;;;;5020460;28;20239;-79
2023/08/23 10:30:26;;;;;;;;;;;31.70;99.90;;;;;;5033980;28;20451;-79
2023/08/23 10:32:52;;;;;;;;;;;31.70;99.90;;;;;;5029990;28;19970;-80
2023/08/23 10:35:22;;;;;;;;;;;31.60;99.90;;;;;;5033888;28;19916;-80
2023/08/23 10:37:47;;;;;;;;;;;31.60;99.90;;;;;;5016362;28;19928;-79
2023/08/23 10:40:17;;;;;;;;;;;31.60;99.90;;;;;;5036049;28;19917;-81
2023/08/23 10:42:42;;;;;;;;;;;31.60;99.90;;;;;;5017895;28;19936;-79
2023/08/23 10:45:09;;;;;;;;;;;31.60;99.90;;;;;;5036574;28;20855;-80
2023/08/23 10:47:35;;;;;;;;;;;31.60;99.90;;;;;;5032551;28;19920;-79
2023/08/23 10:50:02;;;;;;;;;;;31.50;99.90;;;;;;5035939;28;19917;-80
2023/08/23 10:52:28;;;;;;;;;;;31.50;99.90;;;;;;5037203;28;20062;-81
2023/08/23 10:54:53;;;;;;;;;;;31.60;99.90;;;;;;5033311;28;20023;-79
2023/08/23 10:57:19;;;;;;;;;;;31.80;99.90;;;;;;5036947;28;19980;-81
2023/08/23 10:59:44;;;;;;;;;;;31.80;99.90;;;;;;5020027;28;20015;-81
2023/08/23 11:02:10;;;;;;;;;;;31.80;99.90;;;;;;5034619;28;21551;-79
2023/08/23 11:04:36;;;;;;;;;;;31.80;99.90;;;;;;5032398;28;19951;-79
2023/08/23 11:07:01;;;;;;;;;;;31.70;99.90;;;;;;5038563;28;19916;-77
2023/08/23 11:09:27;;;;;;;;;;;31.60;99.90;;;;;;5040853;28;19917;-82
2023/08/23 11:11:53;;;;;;;;;;;31.60;99.90;;;;;;5040201;28;20582;-80
2023/08/23 11:14:18;;;;;;;;;;;31.60;99.90;;;;;;5044826;28;20477;-80
2023/08/23 11:16:44;;;;;;;;;;;31.70;99.90;;;;;;5043101;28;19931;-81
2023/08/23 11:19:10;;;;;;;;;;;31.70;99.90;;;;;;5038046;28;19953;-80
2023/08/23 11:21:36;;;;;;;;;;;31.70;99.90;;;;;;5037080;28;20483;-78
2023/08/23 11:24:03;;;;;;;;;;;31.60;99.90;;;;;;5039664;28;20020;-80
2023/08/23 11:26:31;;;;;;;;;;;31.40;99.90;;;;;;5008596;28;19932;-79
2023/08/23 11:29:04;;;;;;;;;;;31.30;99.90;;;;;;5040297;28;19927;-78
2023/08/23 11:31:33;;;;;;;;;;;31.10;99.90;;;;;;5042850;28;19925;-79
2023/08/23 11:33:59;;;;;;;;;;;30.90;99.90;;;;;;5042508;28;19950;-80
2023/08/23 11:36:27;;;;;;;;;;;30.90;99.90;;;;;;5038914;28;20006;-77
2023/08/23 11:38:52;;;;;;;;;;;30.90;99.90;;;;;;5038406;28;19932;-79
2023/08/23 11:41:28;;;;;;;;;;;30.80;99.90;;;;;;5031948;28;19928;-79
2023/08/23 11:43:53;;;;;;;;;;;30.80;99.90;;;;;;5039238;28;20731;-80
2023/08/23 11:46:19;;;;;;;;;;;30.90;99.90;;;;;;5041615;28;19962;-79
2023/08/23 11:48:44;;;;;;;;;;;31.00;99.90;;;;;;5027414;28;19956;-79
2023/08/23 11:51:10;;;;;;;;;;;31.00;99.90;;;;;;5038821;28;19927;-80
2023/08/23 11:53:35;;;;;;;;;;;31.00;99.90;;;;;;5040344;28;19908;-79
2023/08/23 11:56:05;;;;;;;;;;;31.10;99.90;;;;;;5035049;28;20456;-79
2023/08/23 11:58:30;;;;;;;;;;;31.20;99.90;;;;;;5031781;28;19920;-80
2023/08/23 12:00:56;;;;;;;;;;;31.20;99.90;;;;;;5016867;28;19916;-78
2023/08/23 12:03:21;;;;;;;;;;;31.30;99.90;;;;;;5030230;28;19966;-77
2023/08/23 12:05:47;;;;;;;;;;;31.40;99.90;;;;;;5030512;28;19912;-80
2023/08/23 12:08:12;;;;;;;;;;;31.40;99.90;;;;;;5024591;28;19948;-84
2023/08/23 12:10:38;;;;;;;;;;;31.40;99.90;;;;;;5028225;28;20377;-80
2023/08/23 12:13:03;;;;;;;;;;;31.30;99.90;;;;;;5024859;28;19913;-84
2023/08/23 12:15:29;;;;;;;;;;;31.20;99.90;;;;;;5029016;28;19935;-83
2023/08/23 12:17:55;;;;;;;;;;;31.20;99.90;;;;;;5031117;28;19927;-82
2023/08/23 12:20:21;;;;;;;;;;;31.20;99.90;;;;;;5029488;28;20382;-76
2023/08/23 12:22:47;;;;;;;;;;;31.10;99.90;;;;;;5027372;28;19916;-78
2023/08/23 12:25:13;;;;;;;;;;;31.10;99.90;;;;;;5024074;28;20300;-70
2023/08/23 12:27:38;;;;;;;;;;;31.10;99.90;;;;;;5020651;28;20393;-75
2023/08/23 12:30:05;;;;;;;;;;;31.20;99.90;;;;;;5029984;28;19913;-75
2023/08/23 12:32:31;;;;;;;;;;;31.40;99.90;;;;;;5034309;28;19920;-71
2023/08/23 12:34:56;;;;;;;;;;;31.50;99.90;;;;;;5032930;28;21156;-71
2023/08/23 12:37:22;;;;;;;;;;;31.60;99.90;;;;;;5034263;28;19979;-70
2023/08/23 12:39:49;;;;;;;;;;;31.60;99.90;;;;;;5027185;28;19939;-71
2023/08/23 12:42:15;;;;;;;;;;;31.60;99.90;;;;;;5015538;28;19913;-71
2023/08/23 12:44:41;;;;;;;;;;;31.50;99.90;;;;;;5022027;28;20853;-71
2023/08/23 12:47:06;;;;;;;;;;;31.40;99.90;;;;;;5019886;28;20007;-71
2023/08/23 12:49:32;;;;;;;;;;;31.20;99.90;;;;;;5015008;28;19952;-70
2023/08/23 12:51:57;;;;;;;;;;;31.20;99.90;;;;;;5017181;28;19908;-81
2023/08/23 12:54:23;;;;;;;;;;;31.10;99.90;;;;;;5020803;28;21404;-77
2023/08/23 12:56:48;;;;;;;;;;;31.00;99.90;;;;;;5018033;28;19979;-71
2023/08/23 12:59:14;;;;;;;;;;;30.90;99.90;;;;;;5013923;28;19924;-70
2023/08/23 13:01:39;;;;;;;;;;;30.90;99.90;;;;;;5000944;28;19970;-71
2023/08/23 13:04:05;;;;;;;;;;;31.10;99.90;;;;;;5008241;28;20553;-71
2023/08/23 13:06:31;;;;;;;;;;;31.20;99.90;;;;;;5014490;28;19917;-70
2023/08/23 13:08:56;;;;;;;;;;;31.30;99.90;;;;;;5012604;28;19912;-68